Terminal Aerodrome Forecast
Issued by NWS

Home | Current Version | Previous Version | Text Only | Print | Product List | Glossary On
Versions: 1 2 3 4 5 6 7 8 9 10 11 12 13 14 15 16 17 18
979
FTUS43 KGRR 210540
TAFMKG
TAF
KMKG 210540Z 2106/2206 20015G32KT P6SM BKN200
     FM211200 26015G23KT P6SM OVC035
     FM220000 31013G20KT P6SM OVC050
     FM220300 32011KT P6SM OVC050=

USA.gov is the U.S. government's official web portal to all federal, state and local government web resources and services.